createdAt,value
2019-01-08T00:00:40.510Z,100
2019-01-08T00:01:42.644Z,100
2019-01-08T00:02:45.091Z,100
2019-01-08T00:03:47.253Z,100
2019-01-08T00:04:49.393Z,100
2019-01-08T00:05:51.611Z,100
2019-01-08T00:06:53.762Z,100
2019-01-08T00:07:55.876Z,100
2019-01-08T00:08:58.276Z,100
2019-01-08T00:10:00.632Z,100
2019-01-08T00:11:02.766Z,100
2019-01-08T00:12:04.893Z,100
2019-01-08T00:13:07.045Z,100
2019-01-08T00:14:09.157Z,100
2019-01-08T00:15:11.291Z,100
2019-01-08T00:16:13.434Z,100
2019-01-08T00:17:15.876Z,100
2019-01-08T00:18:18.084Z,100
2019-01-08T00:19:20.223Z,100
2019-01-08T00:20:22.560Z,100
2019-01-08T00:21:24.721Z,100
2019-01-08T00:22:26.846Z,100
2019-01-08T00:23:29.002Z,100
2019-01-08T00:24:31.425Z,100
2019-01-08T00:25:33.550Z,100
2019-01-08T00:26:35.676Z,100
2019-01-08T00:27:38.100Z,100
2019-01-08T00:28:44.272Z,100
2019-01-08T00:29:46.413Z,100
2019-01-08T00:30:48.527Z,100
2019-01-08T00:31:50.968Z,100
2019-01-08T00:32:53.120Z,100
2019-01-08T00:33:55.367Z,100
2019-01-08T00:34:57.512Z,100
2019-01-08T00:35:59.639Z,100
2019-01-08T00:37:02.344Z,100
2019-01-08T00:38:04.550Z,100
2019-01-08T00:39:06.726Z,100
2019-01-08T00:40:08.875Z,100
2019-01-08T00:41:10.992Z,100
2019-01-08T00:42:13.133Z,100
2019-01-08T00:43:15.267Z,100
2019-01-08T00:44:17.399Z,100
2019-01-08T00:45:19.557Z,100
2019-01-08T00:46:21.686Z,100
2019-01-08T00:47:24.113Z,100
2019-01-08T00:48:26.248Z,100
2019-01-08T00:49:28.391Z,100
2019-01-08T00:50:30.818Z,100
2019-01-08T00:51:33.049Z,100
2019-01-08T00:52:35.202Z,100
2019-01-08T00:53:37.339Z,100
2019-01-08T00:54:39.475Z,100
2019-01-08T00:55:41.649Z,100
2019-01-08T00:56:43.781Z,100
2019-01-08T00:57:45.907Z,100
2019-01-08T00:58:52.898Z,100
2019-01-08T00:59:55.028Z,100
2019-01-08T01:00:57.145Z,100
2019-01-08T01:01:59.311Z,100
2019-01-08T01:03:01.455Z,100
2019-01-08T01:04:03.587Z,100
2019-01-08T01:05:05.711Z,100
2019-01-08T01:06:07.857Z,100
2019-01-08T01:07:09.966Z,100
2019-01-08T01:08:12.107Z,100
2019-01-08T01:09:14.519Z,100
2019-01-08T01:10:16.658Z,100
2019-01-08T01:11:18.791Z,100
2019-01-08T01:12:20.912Z,100
2019-01-08T01:13:23.073Z,100
2019-01-08T01:14:25.210Z,100
2019-01-08T01:15:27.427Z,100
2019-01-08T01:16:29.558Z,100
2019-01-08T01:17:31.976Z,100
2019-01-08T01:18:34.504Z,100
2019-01-08T01:19:36.648Z,100
2019-01-08T01:20:38.779Z,100
2019-01-08T01:21:40.901Z,100
2019-01-08T01:22:43.105Z,100
2019-01-08T01:23:45.243Z,100
2019-01-08T01:24:47.400Z,100
2019-01-08T01:25:49.813Z,100
2019-01-08T01:26:52.704Z,100
2019-01-08T01:27:54.828Z,100
2019-01-08T01:29:01.274Z,100
2019-01-08T01:30:03.417Z,100
2019-01-08T01:31:05.531Z,100
2019-01-08T01:32:08.043Z,100
2019-01-08T01:33:10.182Z,100
2019-01-08T01:34:12.308Z,100
2019-01-08T01:35:14.433Z,100
2019-01-08T01:36:16.556Z,100
2019-01-08T01:37:18.785Z,100
2019-01-08T01:38:20.935Z,100
2019-01-08T01:39:23.162Z,100
2019-01-08T01:40:25.290Z,100
2019-01-08T01:41:27.826Z,100
2019-01-08T01:42:29.948Z,100
2019-01-08T01:43:32.364Z,100
2019-01-08T01:44:34.790Z,100
2019-01-08T01:45:36.935Z,100
2019-01-08T01:46:39.380Z,100
2019-01-08T01:47:41.509Z,100
2019-01-08T01:48:43.650Z,100
2019-01-08T01:49:45.803Z,100
2019-01-08T01:50:48.238Z,100
2019-01-08T01:51:50.403Z,100
2019-01-08T01:52:52.590Z,100
2019-01-08T01:53:54.726Z,100
2019-01-08T01:54:57.163Z,100
2019-01-08T01:55:59.284Z,100
2019-01-08T01:57:01.698Z,100
2019-01-08T01:58:04.138Z,100
2019-01-08T01:59:09.571Z,100
2019-01-08T02:00:11.734Z,100
2019-01-08T02:01:13.891Z,100
2019-01-08T02:02:16.012Z,100
2019-01-08T02:03:18.551Z,100
2019-01-08T02:04:21.068Z,100
2019-01-08T02:05:23.208Z,100
2019-01-08T02:06:25.618Z,100
2019-01-08T02:07:27.741Z,100
2019-01-08T02:08:30.257Z,100
2019-01-08T02:09:32.388Z,100
2019-01-08T02:10:34.523Z,100
2019-01-08T02:11:36.719Z,100
2019-01-08T02:12:38.850Z,100
2019-01-08T02:13:40.981Z,100
2019-01-08T02:14:43.159Z,100
2019-01-08T02:15:45.303Z,100
2019-01-08T02:16:47.456Z,100
2019-01-08T02:17:49.669Z,100
2019-01-08T02:18:51.819Z,100
2019-01-08T02:19:53.952Z,100
2019-01-08T02:20:56.168Z,100
2019-01-08T02:21:58.289Z,100
2019-01-08T02:23:00.430Z,100
2019-01-08T02:24:02.584Z,100
2019-01-08T02:25:04.729Z,100
2019-01-08T02:26:06.877Z,100
2019-01-08T02:27:08.998Z,100
2019-01-08T02:28:11.194Z,100
2019-01-08T02:29:17.563Z,100
2019-01-08T02:30:19.695Z,100
2019-01-08T02:31:22.548Z,100
2019-01-08T02:32:24.693Z,100
2019-01-08T02:33:26.845Z,100
2019-01-08T02:34:29.269Z,100
2019-01-08T02:35:31.793Z,100
2019-01-08T02:36:33.972Z,100
2019-01-08T02:37:36.429Z,100
2019-01-08T02:38:38.569Z,100
2019-01-08T02:39:40.708Z,100
2019-01-08T02:40:42.865Z,100
2019-01-08T02:41:45.503Z,100
2019-01-08T02:42:47.906Z,100
2019-01-08T02:43:50.049Z,100
2019-01-08T02:44:52.200Z,100
2019-01-08T02:45:54.932Z,100
2019-01-08T02:46:57.603Z,100
2019-01-08T02:47:59.736Z,100
2019-01-08T02:49:01.870Z,100
2019-01-08T02:50:04.181Z,100
2019-01-08T02:51:06.351Z,100
2019-01-08T02:52:08.815Z,100
2019-01-08T02:53:11.254Z,100
2019-01-08T02:54:13.514Z,100
2019-01-08T02:55:15.735Z,100
2019-01-08T02:56:17.859Z,100
2019-01-08T02:57:20.370Z,100
2019-01-08T02:58:22.788Z,100
2019-01-08T02:59:26.257Z,100
2019-01-08T03:00:28.399Z,100
2019-01-08T03:01:30.558Z,100
2019-01-08T03:02:32.988Z,100
2019-01-08T03:03:35.214Z,100
2019-01-08T03:04:37.666Z,100
2019-01-08T03:05:40.084Z,100
2019-01-08T03:06:42.218Z,100
2019-01-08T03:07:44.337Z,100
2019-01-08T03:08:46.477Z,100
2019-01-08T03:09:48.632Z,100
2019-01-08T03:10:50.765Z,100
2019-01-08T03:11:53.211Z,100
2019-01-08T03:12:55.355Z,100
2019-01-08T03:13:57.504Z,100
2019-01-08T03:14:59.645Z,100
2019-01-08T03:16:01.977Z,100
2019-01-08T03:17:04.501Z,100
2019-01-08T03:18:06.647Z,100
2019-01-08T03:19:08.777Z,100
2019-01-08T03:20:10.911Z,100
2019-01-08T03:21:13.037Z,100
2019-01-08T03:22:15.193Z,100
2019-01-08T03:23:17.338Z,100
2019-01-08T03:24:19.466Z,100
2019-01-08T03:25:21.588Z,100
2019-01-08T03:26:23.746Z,100
2019-01-08T03:27:25.899Z,100
2019-01-08T03:28:28.035Z,100
2019-01-08T03:29:34.659Z,100
2019-01-08T03:30:36.837Z,100
2019-01-08T03:31:39.372Z,100
2019-01-08T03:32:41.539Z,100
2019-01-08T03:33:43.665Z,100
2019-01-08T03:34:45.798Z,100
2019-01-08T03:35:48.606Z,100
2019-01-08T03:36:51.110Z,100
2019-01-08T03:37:53.265Z,100
2019-01-08T03:38:55.793Z,100
2019-01-08T03:39:57.926Z,100
2019-01-08T03:41:00.446Z,100
2019-01-08T03:42:02.590Z,100
2019-01-08T03:43:05.039Z,100
2019-01-08T03:44:07.173Z,100
2019-01-08T03:45:09.306Z,100
2019-01-08T03:46:11.709Z,100
2019-01-08T03:47:13.838Z,100
2019-01-08T03:48:15.972Z,100
2019-01-08T03:49:18.161Z,100
2019-01-08T03:50:20.316Z,100
2019-01-08T03:51:22.443Z,100
2019-01-08T03:52:24.578Z,100
2019-01-08T03:53:26.703Z,100
2019-01-08T03:54:28.904Z,100
2019-01-08T03:55:31.026Z,100
2019-01-08T03:56:33.167Z,100
2019-01-08T03:57:35.619Z,100
2019-01-08T03:58:37.765Z,100
2019-01-08T03:59:43.078Z,100
2019-01-08T04:00:45.314Z,100
2019-01-08T04:01:47.463Z,100
2019-01-08T04:02:49.964Z,100
2019-01-08T04:03:52.093Z,100
2019-01-08T04:04:54.217Z,100
2019-01-08T04:05:56.336Z,100
2019-01-08T04:06:58.506Z,100
2019-01-08T04:08:00.645Z,100
2019-01-08T04:09:02.866Z,100
2019-01-08T04:10:05.007Z,100
2019-01-08T04:11:07.134Z,100
2019-01-08T04:12:09.271Z,100
2019-01-08T04:13:11.421Z,100
2019-01-08T04:14:13.552Z,100
2019-01-08T04:15:15.676Z,100
2019-01-08T04:16:18.095Z,100
2019-01-08T04:17:20.231Z,100
2019-01-08T04:18:22.359Z,100
2019-01-08T04:19:24.795Z,100
2019-01-08T04:20:27.027Z,100
2019-01-08T04:21:29.153Z,100
2019-01-08T04:22:31.581Z,100
2019-01-08T04:23:33.726Z,100
2019-01-08T04:24:35.873Z,100
2019-01-08T04:25:38.332Z,100
2019-01-08T04:26:40.755Z,100
2019-01-08T04:27:43.181Z,100
2019-01-08T04:28:45.336Z,100
2019-01-08T04:29:51.573Z,100
2019-01-08T04:30:53.693Z,100
2019-01-08T04:31:55.828Z,100
2019-01-08T04:32:57.950Z,100
2019-01-08T04:34:00.079Z,100
2019-01-08T04:35:02.564Z,100
2019-01-08T04:36:04.698Z,100
2019-01-08T04:37:06.841Z,100
2019-01-08T04:38:08.971Z,100
2019-01-08T04:39:11.092Z,100
2019-01-08T04:40:13.515Z,100
2019-01-08T04:41:15.652Z,100
2019-01-08T04:42:17.776Z,100
2019-01-08T04:43:19.918Z,100
2019-01-08T04:44:22.071Z,100
2019-01-08T04:45:24.228Z,100
2019-01-08T04:46:26.654Z,100
2019-01-08T04:47:28.788Z,100
2019-01-08T04:48:31.230Z,100
2019-01-08T04:49:33.373Z,100
2019-01-08T04:50:35.804Z,100
2019-01-08T04:51:37.945Z,100
2019-01-08T04:52:40.116Z,100
2019-01-08T04:53:42.543Z,100
2019-01-08T04:54:44.685Z,100
2019-01-08T04:55:46.827Z,100
2019-01-08T04:56:48.982Z,100
2019-01-08T04:57:51.586Z,100
2019-01-08T04:58:53.715Z,100
2019-01-08T05:00:00.029Z,100
2019-01-08T05:01:02.189Z,100
2019-01-08T05:02:04.335Z,100
2019-01-08T05:03:06.475Z,100
2019-01-08T05:04:08.630Z,100
2019-01-08T05:05:10.776Z,100
2019-01-08T05:06:13.213Z,100
2019-01-08T05:07:15.650Z,100
2019-01-08T05:08:17.802Z,100
2019-01-08T05:09:19.950Z,100
2019-01-08T05:10:22.090Z,100
2019-01-08T05:11:24.227Z,100
2019-01-08T05:12:26.364Z,100
2019-01-08T05:13:28.475Z,100
2019-01-08T05:14:30.997Z,100
2019-01-08T05:15:33.145Z,100
2019-01-08T05:16:35.573Z,100
2019-01-08T05:17:37.693Z,100
2019-01-08T05:18:39.833Z,100
2019-01-08T05:19:41.976Z,100
2019-01-08T05:20:44.096Z,100
2019-01-08T05:21:46.240Z,100
2019-01-08T05:22:48.388Z,100
2019-01-08T05:23:50.518Z,100
2019-01-08T05:24:53.339Z,100
2019-01-08T05:25:55.462Z,100
2019-01-08T05:26:57.614Z,100
2019-01-08T05:27:59.750Z,100
2019-01-08T05:29:02.211Z,100
2019-01-08T05:30:09.167Z,100
2019-01-08T05:31:11.403Z,100
2019-01-08T05:32:13.819Z,100
2019-01-08T05:33:15.943Z,100
2019-01-08T05:34:18.076Z,100
2019-01-08T05:35:20.215Z,100
2019-01-08T05:36:22.341Z,100
2019-01-08T05:37:24.792Z,100
2019-01-08T05:38:26.924Z,100
2019-01-08T05:39:29.066Z,100
2019-01-08T05:40:31.313Z,100
2019-01-08T05:41:33.453Z,100
2019-01-08T05:42:35.606Z,100
2019-01-08T05:43:37.732Z,100
2019-01-08T05:44:39.867Z,100
2019-01-08T05:45:42.277Z,100
2019-01-08T05:46:44.413Z,100
2019-01-08T05:47:46.538Z,100
2019-01-08T05:48:48.693Z,100
2019-01-08T05:49:50.801Z,100
2019-01-08T05:50:52.944Z,100
2019-01-08T05:51:55.372Z,100
2019-01-08T05:52:57.509Z,100
2019-01-08T05:53:59.665Z,100
2019-01-08T05:55:02.188Z,100
2019-01-08T05:56:04.316Z,100
2019-01-08T05:57:06.519Z,100
2019-01-08T05:58:08.644Z,100
2019-01-08T05:59:11.041Z,100
2019-01-08T06:00:17.572Z,100
2019-01-08T06:01:19.735Z,100
2019-01-08T06:02:21.884Z,100
2019-01-08T06:03:24.026Z,100
2019-01-08T06:04:26.454Z,100
2019-01-08T06:05:28.590Z,100
2019-01-08T06:06:30.714Z,100
2019-01-08T06:07:33.517Z,100
2019-01-08T06:08:35.635Z,100
2019-01-08T06:09:37.772Z,100
2019-01-08T06:10:39.923Z,100
2019-01-08T06:11:42.054Z,100
2019-01-08T06:12:44.192Z,100
2019-01-08T06:13:46.335Z,100
2019-01-08T06:14:48.453Z,100
2019-01-08T06:15:50.566Z,100
2019-01-08T06:16:52.708Z,100
2019-01-08T06:17:54.835Z,100
2019-01-08T06:18:56.979Z,100
2019-01-08T06:19:59.108Z,100
2019-01-08T06:21:01.226Z,100
2019-01-08T06:22:03.365Z,100
2019-01-08T06:23:05.780Z,100
2019-01-08T06:24:08.191Z,100
2019-01-08T06:25:10.323Z,100
2019-01-08T06:26:12.753Z,100
2019-01-08T06:27:14.874Z,100
2019-01-08T06:28:17.012Z,100
2019-01-08T06:29:19.165Z,100
2019-01-08T06:30:25.763Z,100
2019-01-08T06:31:27.901Z,100
2019-01-08T06:32:30.035Z,100
2019-01-08T06:33:32.170Z,100
2019-01-08T06:34:34.300Z,100
2019-01-08T06:35:36.421Z,100
2019-01-08T06:36:38.569Z,100
2019-01-08T06:37:40.687Z,100
2019-01-08T06:38:42.803Z,100
2019-01-08T06:39:44.930Z,100
2019-01-08T06:40:47.340Z,100
2019-01-08T06:41:49.467Z,100
2019-01-08T06:42:51.681Z,100
2019-01-08T06:43:53.830Z,100
2019-01-08T06:44:55.959Z,100
2019-01-08T06:45:58.081Z,100
2019-01-08T06:47:00.208Z,100
2019-01-08T06:48:02.647Z,100
2019-01-08T06:49:04.775Z,100
2019-01-08T06:50:06.926Z,100
2019-01-08T06:51:09.071Z,100
2019-01-08T06:52:11.193Z,100
2019-01-08T06:53:13.319Z,100
2019-01-08T06:54:15.442Z,100
2019-01-08T06:55:17.567Z,100
2019-01-08T06:56:19.962Z,100
2019-01-08T06:57:22.080Z,100
2019-01-08T06:58:24.240Z,100
2019-01-08T06:59:26.360Z,100
2019-01-08T07:00:34.566Z,100
2019-01-08T07:01:36.685Z,100
2019-01-08T07:02:39.671Z,100
2019-01-08T07:03:41.799Z,100
2019-01-08T07:04:43.929Z,100
2019-01-08T07:05:46.148Z,100
2019-01-08T07:06:48.278Z,100
2019-01-08T07:07:50.688Z,100
2019-01-08T07:08:52.825Z,100
2019-01-08T07:09:54.954Z,100
2019-01-08T07:10:57.083Z,100
2019-01-08T07:11:59.489Z,100
2019-01-08T07:13:02.046Z,100
2019-01-08T07:14:04.181Z,100
2019-01-08T07:15:06.621Z,100
2019-01-08T07:16:08.752Z,100
2019-01-08T07:17:10.906Z,100
2019-01-08T07:18:13.037Z,100
2019-01-08T07:19:15.149Z,100
2019-01-08T07:20:17.283Z,100
2019-01-08T07:21:19.416Z,100
2019-01-08T07:22:21.562Z,100
2019-01-08T07:23:23.712Z,100
2019-01-08T07:24:25.845Z,100
2019-01-08T07:25:27.975Z,100
2019-01-08T07:26:30.109Z,100
2019-01-08T07:27:32.236Z,100
2019-01-08T07:28:34.352Z,100
2019-01-08T07:29:36.466Z,100
2019-01-08T07:30:43.010Z,100
2019-01-08T07:31:45.169Z,100
2019-01-08T07:32:47.598Z,100
2019-01-08T07:33:50.102Z,100
2019-01-08T07:34:52.240Z,100
2019-01-08T07:35:54.374Z,100
2019-01-08T07:36:56.552Z,100
2019-01-08T07:37:58.755Z,100
2019-01-08T07:39:00.913Z,100
2019-01-08T07:40:03.124Z,100
2019-01-08T07:41:05.244Z,100
2019-01-08T07:42:07.367Z,100
2019-01-08T07:43:09.509Z,100
2019-01-08T07:44:11.665Z,100
2019-01-08T07:45:13.811Z,100
2019-01-08T07:46:15.963Z,100
2019-01-08T07:47:18.095Z,100
2019-01-08T07:48:20.230Z,100
2019-01-08T07:49:22.375Z,100
2019-01-08T07:50:24.507Z,100
2019-01-08T07:51:26.645Z,100
2019-01-08T07:52:28.778Z,100
2019-01-08T07:53:30.980Z,100
2019-01-08T07:54:33.106Z,100
2019-01-08T07:55:37.637Z,100
2019-01-08T07:56:39.802Z,100
2019-01-08T07:57:41.940Z,100
2019-01-08T07:58:44.077Z,100
2019-01-08T07:59:46.216Z,100
2019-01-08T08:00:51.089Z,100
2019-01-08T08:01:53.220Z,100
2019-01-08T08:02:56.051Z,100
2019-01-08T08:03:58.472Z,100
2019-01-08T08:05:00.608Z,100
2019-01-08T08:06:02.782Z,100
2019-01-08T08:07:05.004Z,100
2019-01-08T08:08:07.148Z,100
2019-01-08T08:09:09.278Z,100
2019-01-08T08:10:11.429Z,100
2019-01-08T08:11:13.958Z,100
2019-01-08T08:12:16.182Z,100
2019-01-08T08:13:18.297Z,100
2019-01-08T08:14:20.459Z,100
2019-01-08T08:15:22.974Z,100
2019-01-08T08:16:25.422Z,100
2019-01-08T08:17:27.562Z,100
2019-01-08T08:18:29.686Z,100
2019-01-08T08:19:31.841Z,100
2019-01-08T08:20:34.254Z,100
2019-01-08T08:21:36.692Z,100
2019-01-08T08:22:38.844Z,100
2019-01-08T08:23:40.975Z,100
2019-01-08T08:24:43.515Z,100
2019-01-08T08:25:45.661Z,100
2019-01-08T08:26:48.094Z,100
2019-01-08T08:27:50.252Z,100
2019-01-08T08:28:52.402Z,100
2019-01-08T08:29:54.907Z,100
2019-01-08T08:31:00.239Z,100
2019-01-08T08:32:02.755Z,100
2019-01-08T08:33:04.895Z,100
2019-01-08T08:34:07.040Z,100
2019-01-08T08:35:10.450Z,100
2019-01-08T08:36:12.600Z,100
2019-01-08T08:37:14.752Z,100
2019-01-08T08:38:16.874Z,100
2019-01-08T08:39:18.997Z,100
2019-01-08T08:40:21.118Z,100
2019-01-08T08:41:23.322Z,100
2019-01-08T08:42:25.462Z,100
2019-01-08T08:43:27.590Z,100
2019-01-08T08:44:29.728Z,100
2019-01-08T08:45:31.872Z,100
2019-01-08T08:46:34.018Z,100
2019-01-08T08:47:36.178Z,100
2019-01-08T08:48:38.326Z,100
2019-01-08T08:49:40.724Z,100
2019-01-08T08:50:43.049Z,100
2019-01-08T08:51:45.201Z,100
2019-01-08T08:52:47.333Z,100
2019-01-08T08:53:53.767Z,100
2019-01-08T08:54:55.929Z,100
2019-01-08T08:55:58.057Z,100
2019-01-08T08:57:00.209Z,100
2019-01-08T08:58:02.348Z,100
2019-01-08T08:59:04.481Z,100
2019-01-08T09:00:06.634Z,100
2019-01-08T09:01:08.778Z,100
2019-01-08T09:02:10.939Z,100
2019-01-08T09:03:13.084Z,100
2019-01-08T09:04:15.225Z,100
2019-01-08T09:05:17.357Z,100
2019-01-08T09:06:19.520Z,100
2019-01-08T09:07:21.678Z,100
2019-01-08T09:08:24.193Z,100
2019-01-08T09:09:26.338Z,100
2019-01-08T09:10:28.543Z,100
2019-01-08T09:11:30.942Z,100
2019-01-08T09:12:33.066Z,100
2019-01-08T09:13:37.826Z,100
2019-01-08T09:14:41.108Z,100
2019-01-08T09:15:43.239Z,100
2019-01-08T09:16:45.381Z,100
2019-01-08T09:17:47.509Z,100
2019-01-08T09:18:49.631Z,100
2019-01-08T09:19:51.789Z,100
2019-01-08T09:20:54.104Z,100
2019-01-08T09:21:56.271Z,100
2019-01-08T09:22:58.405Z,100
2019-01-08T09:24:00.525Z,100
2019-01-08T09:25:03.037Z,100
2019-01-08T09:26:08.144Z,100
2019-01-08T09:27:15.335Z,100
2019-01-08T09:28:23.610Z,100
2019-01-08T09:29:31.775Z,100
2019-01-08T09:30:39.505Z,100
2019-01-08T09:31:44.677Z,100
2019-01-08T09:32:51.405Z,100
2019-01-08T09:33:59.582Z,100
2019-01-08T09:35:07.592Z,100
2019-01-08T09:36:15.714Z,100
2019-01-08T09:37:24.496Z,100
2019-01-08T09:38:32.476Z,100
2019-01-08T09:39:41.272Z,100
2019-01-08T09:40:49.432Z,100
2019-01-08T09:41:57.600Z,100
2019-01-08T09:43:06.532Z,100
2019-01-08T09:44:13.129Z,100
2019-01-08T09:45:22.712Z,100
2019-01-08T09:46:31.408Z,100
2019-01-08T09:47:42.233Z,100
2019-01-08T09:48:52.187Z,100
2019-01-08T09:50:00.807Z,100
2019-01-08T09:51:08.519Z,100
2019-01-08T09:52:18.295Z,100
2019-01-08T09:53:22.903Z,100
2019-01-08T09:54:25.055Z,100
2019-01-08T09:55:27.249Z,100
2019-01-08T09:56:29.474Z,100
2019-01-08T09:57:31.704Z,100
2019-01-08T09:58:33.871Z,100
2019-01-08T09:59:36.557Z,100
2019-01-08T10:00:38.703Z,100
2019-01-08T10:01:40.841Z,100
2019-01-08T10:02:43.260Z,100
2019-01-08T10:03:45.792Z,100
2019-01-08T10:04:47.928Z,100
2019-01-08T10:05:50.096Z,100
2019-01-08T10:06:52.623Z,100
2019-01-08T10:07:55.061Z,100
2019-01-08T10:08:57.230Z,100
2019-01-08T10:09:59.388Z,100
2019-01-08T10:11:02.195Z,100
2019-01-08T10:12:04.320Z,100
2019-01-08T10:13:06.452Z,100
2019-01-08T10:14:09.340Z,100
2019-01-08T10:15:11.655Z,100
2019-01-08T10:16:13.872Z,100
2019-01-08T10:17:16.442Z,100
2019-01-08T10:18:18.698Z,100
2019-01-08T10:19:21.286Z,100
2019-01-08T10:20:24.035Z,100
2019-01-08T10:21:27.050Z,100
2019-01-08T10:22:29.255Z,100
2019-01-08T10:23:31.382Z,100
2019-01-08T10:24:33.534Z,100
2019-01-08T10:25:35.679Z,100
2019-01-08T10:26:37.811Z,100
2019-01-08T10:27:40.354Z,100
2019-01-08T10:28:42.506Z,100
2019-01-08T10:29:44.980Z,100
2019-01-08T10:30:47.120Z,100
2019-01-08T10:31:49.360Z,100
2019-01-08T10:32:51.546Z,100
2019-01-08T10:33:53.696Z,100
2019-01-08T10:34:55.853Z,100
2019-01-08T10:35:57.979Z,100
2019-01-08T10:37:00.196Z,100
2019-01-08T10:38:02.330Z,100
2019-01-08T10:39:04.445Z,100
2019-01-08T10:40:06.875Z,100
2019-01-08T10:41:09.021Z,100
2019-01-08T10:42:11.565Z,100
2019-01-08T10:43:14.010Z,100
2019-01-08T10:44:16.158Z,100
2019-01-08T10:45:18.755Z,100
2019-01-08T10:46:20.938Z,100
2019-01-08T10:47:23.091Z,100
2019-01-08T10:48:25.539Z,100
2019-01-08T10:49:27.836Z,100
2019-01-08T10:50:29.974Z,100
2019-01-08T10:51:32.182Z,100
2019-01-08T10:52:35.006Z,100
2019-01-08T10:53:37.538Z,100
2019-01-08T10:54:40.273Z,100
2019-01-08T10:55:42.608Z,100
2019-01-08T10:56:45.081Z,100
2019-01-08T10:57:47.421Z,100
2019-01-08T10:58:50.035Z,100
2019-01-08T10:59:52.411Z,100
2019-01-08T11:00:55.894Z,100
2019-01-08T11:01:58.080Z,100
2019-01-08T11:03:00.748Z,100
2019-01-08T11:04:02.887Z,100
2019-01-08T11:05:05.337Z,100
2019-01-08T11:06:07.701Z,100
2019-01-08T11:07:10.621Z,100
2019-01-08T11:08:13.125Z,100
2019-01-08T11:09:16.272Z,100
2019-01-08T11:10:18.902Z,100
2019-01-08T11:11:21.707Z,100
2019-01-08T11:12:24.006Z,100
2019-01-08T11:13:26.837Z,100
2019-01-08T11:14:29.127Z,100
2019-01-08T11:15:31.278Z,100
2019-01-08T11:16:33.708Z,100
2019-01-08T11:17:35.827Z,100
2019-01-08T11:18:37.979Z,100
2019-01-08T11:19:40.115Z,100
2019-01-08T11:20:42.251Z,100
2019-01-08T11:21:44.469Z,100
2019-01-08T11:22:46.642Z,100
2019-01-08T11:23:48.784Z,100
2019-01-08T11:24:50.890Z,100
2019-01-08T11:25:53.029Z,100
2019-01-08T11:26:55.442Z,100
2019-01-08T11:27:57.559Z,100
2019-01-08T11:28:59.798Z,100
2019-01-08T11:30:01.962Z,100
2019-01-08T11:31:04.502Z,100
2019-01-08T11:32:06.639Z,100
2019-01-08T11:33:08.845Z,100
2019-01-08T11:34:11.263Z,100
2019-01-08T11:35:13.698Z,100
2019-01-08T11:36:16.112Z,100
2019-01-08T11:37:18.349Z,100
2019-01-08T11:38:20.485Z,100
2019-01-08T11:39:23.118Z,100
2019-01-08T11:40:25.565Z,100
2019-01-08T11:41:27.978Z,100
2019-01-08T11:42:30.105Z,100
2019-01-08T11:43:32.235Z,100
2019-01-08T11:44:34.689Z,100
2019-01-08T11:45:37.205Z,100
2019-01-08T11:46:39.528Z,100
2019-01-08T11:47:41.802Z,100
2019-01-08T11:48:44.725Z,100
2019-01-08T11:49:47.918Z,100
2019-01-08T11:50:50.417Z,100
2019-01-08T11:51:52.843Z,100
2019-01-08T11:52:55.058Z,100
2019-01-08T11:53:57.215Z,100
2019-01-08T11:54:59.427Z,100
2019-01-08T11:56:01.567Z,100
2019-01-08T11:57:03.707Z,100
2019-01-08T11:58:05.929Z,100
2019-01-08T11:59:09.002Z,100
2019-01-08T12:00:11.154Z,100
2019-01-08T12:01:13.695Z,100
2019-01-08T12:02:16.339Z,100
2019-01-08T12:03:19.023Z,100
2019-01-08T12:04:21.924Z,100
2019-01-08T12:05:25.627Z,100
2019-01-08T12:06:29.027Z,100
2019-01-08T12:07:32.417Z,100
2019-01-08T12:08:34.810Z,100
2019-01-08T12:09:37.198Z,100
2019-01-08T12:10:39.448Z,100
2019-01-08T12:11:42.037Z,100
2019-01-08T12:12:44.261Z,100
2019-01-08T12:13:46.415Z,100
2019-01-08T12:14:48.654Z,100
2019-01-08T12:15:50.954Z,100
2019-01-08T12:16:53.105Z,100
2019-01-08T12:17:55.524Z,100
2019-01-08T12:18:58.173Z,100
2019-01-08T12:20:01.384Z,100
2019-01-08T12:21:04.589Z,100
2019-01-08T12:22:07.313Z,100
2019-01-08T12:23:09.746Z,100
2019-01-08T12:24:11.902Z,100
2019-01-08T12:25:14.037Z,100
2019-01-08T12:26:16.186Z,100
2019-01-08T12:27:18.352Z,100
2019-01-08T12:28:20.524Z,100
2019-01-08T12:29:22.702Z,100
2019-01-08T12:30:24.881Z,100
2019-01-08T12:31:27.085Z,100
2019-01-08T12:32:29.217Z,100
2019-01-08T12:33:31.378Z,100
2019-01-08T12:34:33.508Z,100
2019-01-08T12:35:35.643Z,100
2019-01-08T12:36:38.087Z,100
2019-01-08T12:37:42.293Z,100
2019-01-08T12:38:44.436Z,100
2019-01-08T12:39:46.598Z,100
2019-01-08T12:40:49.048Z,100
2019-01-08T12:41:51.165Z,100
2019-01-08T12:42:53.332Z,100
2019-01-08T12:43:56.927Z,100
2019-01-08T12:44:59.192Z,100
2019-01-08T12:46:01.619Z,100
2019-01-08T12:47:03.781Z,100
2019-01-08T12:48:05.951Z,100
2019-01-08T12:49:08.100Z,100
2019-01-08T12:50:10.252Z,100
2019-01-08T12:51:12.416Z,100
2019-01-08T12:52:14.561Z,100
2019-01-08T12:53:16.735Z,100
2019-01-08T12:54:18.868Z,100
2019-01-08T12:55:21.029Z,100
2019-01-08T12:56:23.213Z,100
2019-01-08T12:57:25.374Z,100
2019-01-08T12:58:27.525Z,100
2019-01-08T12:59:29.663Z,100
2019-01-08T13:00:31.800Z,100
2019-01-08T13:01:33.968Z,99
2019-01-08T13:02:36.135Z,99
2019-01-08T13:03:38.279Z,99
2019-01-08T13:04:40.409Z,100
2019-01-08T13:05:42.556Z,100
2019-01-08T13:06:44.796Z,99
2019-01-08T13:07:46.962Z,99
2019-01-08T13:08:49.110Z,99
2019-01-08T13:09:51.275Z,99
2019-01-08T13:10:53.448Z,99
2019-01-08T13:11:55.900Z,99
2019-01-08T13:12:58.447Z,99
2019-01-08T13:14:00.600Z,99
2019-01-08T13:15:02.724Z,98
2019-01-08T13:16:04.970Z,98
2019-01-08T13:17:12.896Z,98
2019-01-08T13:18:15.070Z,98
2019-01-08T13:19:17.306Z,98
2019-01-08T13:20:19.839Z,98
2019-01-08T13:21:21.971Z,99
2019-01-08T13:22:24.117Z,98
2019-01-08T13:23:26.258Z,98
2019-01-08T13:24:28.435Z,98
2019-01-08T13:25:30.575Z,98
2019-01-08T13:26:32.749Z,98
2019-01-08T13:27:34.889Z,97
2019-01-08T13:28:37.308Z,97
2019-01-08T13:29:39.444Z,97
2019-01-08T13:30:41.587Z,97
2019-01-08T13:31:43.721Z,97
2019-01-08T13:32:45.957Z,97
2019-01-08T13:33:48.125Z,97
2019-01-08T13:34:50.273Z,96
2019-01-08T13:35:52.414Z,97
2019-01-08T13:36:54.715Z,97
2019-01-08T13:37:56.875Z,96
2019-01-08T13:38:59.087Z,96
2019-01-08T13:40:01.239Z,96
2019-01-08T13:41:04.023Z,96
2019-01-08T13:42:06.188Z,96
2019-01-08T13:43:08.334Z,95
2019-01-08T13:44:10.489Z,95
2019-01-08T13:45:12.647Z,95
2019-01-08T13:46:15.088Z,95
2019-01-08T13:47:17.535Z,96
2019-01-08T13:48:19.726Z,96
2019-01-08T13:49:22.788Z,95
2019-01-08T13:50:25.644Z,95
2019-01-08T13:51:27.824Z,95
2019-01-08T13:52:30.024Z,94
2019-01-08T13:53:32.221Z,93
2019-01-08T13:54:34.364Z,92
2019-01-08T13:55:36.564Z,92
2019-01-08T13:56:38.733Z,91
2019-01-08T13:57:40.926Z,91
2019-01-08T13:58:43.081Z,89
2019-01-08T13:59:45.243Z,90
2019-01-08T14:00:47.503Z,89
2019-01-08T14:01:49.712Z,87
2019-01-08T14:02:51.936Z,87
2019-01-08T14:03:54.089Z,87
2019-01-08T14:04:56.618Z,88
2019-01-08T14:05:59.171Z,88
2019-01-08T14:07:01.751Z,88
2019-01-08T14:08:03.945Z,88
2019-01-08T14:09:06.135Z,90
2019-01-08T14:10:08.386Z,89
2019-01-08T14:11:10.883Z,88
2019-01-08T14:12:13.086Z,87
2019-01-08T14:13:15.242Z,87
2019-01-08T14:14:17.457Z,87
2019-01-08T14:15:20.028Z,86
2019-01-08T14:16:22.254Z,86
2019-01-08T14:17:24.809Z,87
2019-01-08T14:18:27.018Z,87
2019-01-08T14:19:29.201Z,86
2019-01-08T14:20:31.415Z,86
2019-01-08T14:21:33.592Z,86
2019-01-08T14:22:35.784Z,86
2019-01-08T14:23:37.990Z,87